createdAt,value
2023-06-01T00:01:08.778Z,6.22
2023-06-01T00:03:38.322Z,6.00
2023-06-01T00:06:06.255Z,6.30
2023-06-01T00:08:33.573Z,5.75
2023-06-01T00:11:00.967Z,5.95
2023-06-01T00:13:28.373Z,6.35
2023-06-01T00:15:55.699Z,5.72
2023-06-01T00:18:22.866Z,5.85
2023-06-01T00:20:50.001Z,5.60
2023-06-01T00:23:21.241Z,6.10
2023-06-01T00:25:48.583Z,5.22
2023-06-01T00:28:15.736Z,5.95
2023-06-01T00:30:43.027Z,6.00
2023-06-01T00:33:10.344Z,7.10
2023-06-01T00:35:37.603Z,6.35
2023-06-01T00:38:04.796Z,6.18
2023-06-01T00:40:32.156Z,6.20
2023-06-01T00:42:59.317Z,5.93
2023-06-01T00:45:26.474Z,5.55
2023-06-01T00:47:54.248Z,5.35
2023-06-01T00:50:23.176Z,5.97
2023-06-01T00:52:50.988Z,5.63
2023-06-01T00:55:18.105Z,5.72
2023-06-01T00:57:45.513Z,5.90
2023-06-01T01:00:12.982Z,6.00
2023-06-01T01:02:40.950Z,6.22
2023-06-01T01:05:10.754Z,6.15
2023-06-01T01:07:37.994Z,5.97
2023-06-01T01:10:09.698Z,5.72
2023-06-01T01:12:52.354Z,5.60
2023-06-01T01:15:23.437Z,5.93
2023-06-01T01:17:52.647Z,6.20
2023-06-01T01:20:23.976Z,6.60
2023-06-01T01:22:52.361Z,6.10
2023-06-01T01:25:28.082Z,6.18
2023-06-01T01:27:55.216Z,6.35
2023-06-01T01:30:23.621Z,6.30
2023-06-01T01:32:51.802Z,6.20
2023-06-01T01:35:19.563Z,5.57
2023-06-01T01:37:53.391Z,6.28
2023-06-01T01:40:20.861Z,5.90
2023-06-01T01:42:48.313Z,6.13
2023-06-01T01:45:16.036Z,6.28
2023-06-01T01:47:57.222Z,5.97
2023-06-01T01:50:27.957Z,5.47
2023-06-01T01:52:56.583Z,6.30
2023-06-01T01:55:25.193Z,6.63
2023-06-01T01:57:53.587Z,6.22
2023-06-01T02:00:21.168Z,6.40
2023-06-01T02:02:48.510Z,6.63
2023-06-01T02:05:15.830Z,5.97
2023-06-01T02:07:42.965Z,6.20
2023-06-01T02:10:10.317Z,6.57
2023-06-01T02:12:37.479Z,6.40
2023-06-01T02:15:04.857Z,5.95
2023-06-01T02:17:33.991Z,6.65
2023-06-01T02:20:01.612Z,6.53
2023-06-01T02:22:28.774Z,6.40
2023-06-01T02:24:56.254Z,6.75
2023-06-01T02:27:24.394Z,7.10
2023-06-01T02:29:51.602Z,6.60
2023-06-01T02:32:18.756Z,6.30
2023-06-01T02:34:46.185Z,6.45
2023-06-01T02:37:13.724Z,7.03
2023-06-01T02:39:40.922Z,7.07
2023-06-01T02:42:08.878Z,6.75
2023-06-01T02:44:36.126Z,6.60
2023-06-01T02:47:03.614Z,7.00
2023-06-01T02:49:30.825Z,6.55
2023-06-01T02:51:57.960Z,6.40
2023-06-01T02:54:25.130Z,6.72
2023-06-01T02:56:52.276Z,6.03
2023-06-01T02:59:19.481Z,6.65
2023-06-01T03:01:47.382Z,6.82
2023-06-01T03:04:16.142Z,7.88
2023-06-01T03:06:44.454Z,7.20
2023-06-01T03:09:14.131Z,7.05
2023-06-01T03:11:42.256Z,6.57
2023-06-01T03:14:09.745Z,7.53
2023-06-01T03:16:36.947Z,6.95
2023-06-01T03:19:04.147Z,7.03
2023-06-01T03:21:32.708Z,6.78
2023-06-01T03:23:59.975Z,6.70
2023-06-01T03:26:28.041Z,7.13
2023-06-01T03:28:56.197Z,6.85
2023-06-01T03:31:23.420Z,7.30
2023-06-01T03:33:51.491Z,7.32
2023-06-01T03:36:18.860Z,6.53
2023-06-01T03:38:46.232Z,6.50
2023-06-01T03:41:13.407Z,6.47
2023-06-01T03:43:40.777Z,6.53
2023-06-01T03:46:08.023Z,7.03
2023-06-01T03:48:35.142Z,6.63
2023-06-01T03:51:02.584Z,6.47
2023-06-01T03:53:32.419Z,7.15
2023-06-01T03:55:59.638Z,5.68
2023-06-01T03:58:28.124Z,6.70
2023-06-01T04:00:55.876Z,6.60
2023-06-01T04:03:23.420Z,6.45
2023-06-01T04:05:59.829Z,6.22
2023-06-01T04:08:30.544Z,6.65
2023-06-01T04:10:57.800Z,6.72
2023-06-01T04:13:26.828Z,7.85
2023-06-01T04:15:55.574Z,6.45
2023-06-01T04:18:22.762Z,7.65
2023-06-01T04:20:49.912Z,6.68
2023-06-01T04:23:17.276Z,6.75
2023-06-01T04:25:45.232Z,7.07
2023-06-01T04:28:13.727Z,6.95
2023-06-01T04:30:41.972Z,6.90
2023-06-01T04:33:09.172Z,8.10
2023-06-01T04:35:38.119Z,6.90
2023-06-01T04:38:05.287Z,6.72
2023-06-01T04:40:32.491Z,6.57
2023-06-01T04:43:03.624Z,6.95
2023-06-01T04:45:32.093Z,7.32
2023-06-01T04:47:59.552Z,7.38
2023-06-01T04:50:30.006Z,7.38
2023-06-01T04:52:57.278Z,7.50
2023-06-01T04:55:24.409Z,7.07
2023-06-01T04:57:51.565Z,7.15
2023-06-01T05:00:19.697Z,7.75
2023-06-01T05:02:48.898Z,7.35
2023-06-01T05:05:16.553Z,7.85
2023-06-01T05:07:43.828Z,7.22
2023-06-01T05:10:12.731Z,6.97
2023-06-01T05:12:40.336Z,7.53
2023-06-01T05:15:08.791Z,6.55
2023-06-01T05:17:36.212Z,7.50
2023-06-01T05:20:04.393Z,7.10
2023-06-01T05:22:31.560Z,6.72
2023-06-01T05:24:58.781Z,6.95
2023-06-01T05:27:26.005Z,6.45
2023-06-01T05:29:53.233Z,8.25
2023-06-01T05:32:21.077Z,6.85
2023-06-01T05:34:48.296Z,7.50
2023-06-01T05:37:15.498Z,7.15
2023-06-01T05:39:42.650Z,6.85
2023-06-01T05:42:09.936Z,6.70
2023-06-01T05:44:37.078Z,6.68
2023-06-01T05:47:04.367Z,7.22
2023-06-01T05:49:32.624Z,6.57
2023-06-01T05:52:00.448Z,6.93
2023-06-01T05:54:27.676Z,6.82
2023-06-01T05:56:54.877Z,7.22
2023-06-01T05:59:22.131Z,6.82
2023-06-01T06:01:49.472Z,7.05
2023-06-01T06:04:17.479Z,6.63
2023-06-01T06:06:45.079Z,7.00
2023-06-01T06:09:14.537Z,7.18
2023-06-01T06:11:42.078Z,6.35
2023-06-01T06:14:12.364Z,6.70
2023-06-01T06:16:40.838Z,6.85
2023-06-01T06:19:08.179Z,7.07
2023-06-01T06:21:37.027Z,7.78
2023-06-01T06:24:04.825Z,6.90
2023-06-01T06:26:32.076Z,7.32
2023-06-01T06:28:59.300Z,7.15
2023-06-01T06:31:26.849Z,6.97
2023-06-01T06:33:54.192Z,6.88
2023-06-01T06:36:21.456Z,7.53
2023-06-01T06:38:48.744Z,7.93
2023-06-01T06:41:15.921Z,7.28
2023-06-01T06:43:43.117Z,7.30
2023-06-01T06:46:10.532Z,7.55
2023-06-01T06:48:37.708Z,7.60
2023-06-01T06:51:05.067Z,6.85
2023-06-01T06:53:32.612Z,7.93
2023-06-01T06:55:59.752Z,7.50
2023-06-01T06:58:27.660Z,7.70
2023-06-01T07:00:54.838Z,6.90
2023-06-01T07:03:22.298Z,7.10
2023-06-01T07:05:49.573Z,7.38
2023-06-01T07:08:17.454Z,7.47
2023-06-01T07:10:44.626Z,7.50
2023-06-01T07:13:11.820Z,7.38
2023-06-01T07:15:38.983Z,7.32
2023-06-01T07:18:06.225Z,6.40
2023-06-01T07:20:33.422Z,6.70
2023-06-01T07:23:00.675Z,6.47
2023-06-01T07:25:27.822Z,6.45
2023-06-01T07:27:57.506Z,6.50
2023-06-01T07:30:24.772Z,6.10
2023-06-01T07:32:52.066Z,5.78
2023-06-01T07:35:19.401Z,5.78
2023-06-01T07:37:47.050Z,5.57
2023-06-01T07:40:14.375Z,6.38
2023-06-01T07:42:41.593Z,6.05
2023-06-01T07:45:10.143Z,6.25
2023-06-01T07:47:37.508Z,5.80
2023-06-01T07:50:05.207Z,5.82
2023-06-01T07:52:33.211Z,5.63
2023-06-01T07:55:00.539Z,5.85
2023-06-01T07:57:28.489Z,6.15
2023-06-01T07:59:55.639Z,5.50
2023-06-01T08:02:22.868Z,5.57
2023-06-01T08:04:50.043Z,6.18
2023-06-01T08:07:17.576Z,6.45
2023-06-01T08:09:44.839Z,5.82
2023-06-01T08:12:12.838Z,6.43
2023-06-01T08:14:42.115Z,6.07
2023-06-01T08:17:12.908Z,7.05
2023-06-01T08:19:41.358Z,6.60
2023-06-01T08:22:08.870Z,5.63
2023-06-01T08:24:36.629Z,6.20
2023-06-01T08:27:06.216Z,5.72
2023-06-01T08:29:42.615Z,5.93
2023-06-01T08:32:11.119Z,4.88
2023-06-01T08:34:38.432Z,6.05
2023-06-01T08:37:05.906Z,5.72
2023-06-01T08:39:33.286Z,5.40
2023-06-01T08:42:11.754Z,5.45
2023-06-01T08:44:41.913Z,5.68
2023-06-01T08:47:10.009Z,5.32
2023-06-01T08:49:37.966Z,6.82
2023-06-01T08:52:08.565Z,5.57
2023-06-01T08:54:36.360Z,5.35
2023-06-01T08:57:05.978Z,6.40
2023-06-01T08:59:33.790Z,6.32
2023-06-01T09:02:01.077Z,6.35
2023-06-01T09:04:28.939Z,6.35
2023-06-01T09:06:56.089Z,6.72
2023-06-01T09:09:23.299Z,7.28
2023-06-01T09:12:11.044Z,6.55
2023-06-01T09:14:38.214Z,6.25
2023-06-01T09:17:05.626Z,6.50
2023-06-01T09:19:45.442Z,7.15
2023-06-01T09:22:16.400Z,6.60
2023-06-01T09:24:56.521Z,6.10
2023-06-01T09:27:23.710Z,7.22
2023-06-01T09:29:57.694Z,6.38
2023-06-01T09:32:25.378Z,7.03
2023-06-01T09:34:52.629Z,6.55
2023-06-01T09:37:19.757Z,7.13
2023-06-01T09:39:46.953Z,7.07
2023-06-01T09:42:14.129Z,6.32
2023-06-01T09:44:42.410Z,6.63
2023-06-01T09:47:12.053Z,5.93
2023-06-01T09:49:43.524Z,6.55
2023-06-01T09:52:13.632Z,6.88
2023-06-01T09:54:48.213Z,6.18
2023-06-01T09:57:21.787Z,6.10
2023-06-01T09:59:48.944Z,6.35
2023-06-01T10:02:17.603Z,6.55
2023-06-01T10:04:51.645Z,6.93
2023-06-01T10:07:19.461Z,6.38
2023-06-01T10:09:50.053Z,6.57
2023-06-01T10:12:17.330Z,6.05
2023-06-01T10:14:44.552Z,5.78
2023-06-01T10:17:13.043Z,5.82
2023-06-01T10:19:40.297Z,6.95
2023-06-01T10:22:11.940Z,6.13
2023-06-01T10:24:43.405Z,6.15
2023-06-01T10:27:15.346Z,6.65
2023-06-01T10:29:42.782Z,5.93
2023-06-01T10:32:28.704Z,5.60
2023-06-01T10:34:55.905Z,6.38
2023-06-01T10:37:23.088Z,5.88
2023-06-01T10:39:50.251Z,6.43
2023-06-01T10:42:18.590Z,5.65
2023-06-01T10:44:45.855Z,5.90
2023-06-01T10:47:12.973Z,5.80
2023-06-01T10:50:03.442Z,5.43
2023-06-01T10:52:39.702Z,5.70
2023-06-01T10:55:06.921Z,6.03
2023-06-01T10:57:34.576Z,5.80
2023-06-01T11:00:17.561Z,6.13
2023-06-01T11:02:54.567Z,6.03
2023-06-01T11:05:40.408Z,6.15
2023-06-01T11:08:30.488Z,6.55
2023-06-01T11:10:57.681Z,6.10
2023-06-01T11:13:28.851Z,5.85
2023-06-01T11:16:11.622Z,5.93
2023-06-01T11:18:46.506Z,5.72
2023-06-01T11:21:18.502Z,5.70
2023-06-01T11:23:46.532Z,5.30
2023-06-01T11:26:17.593Z,5.45
2023-06-01T11:28:45.413Z,5.03
2023-06-01T11:31:13.455Z,5.88
2023-06-01T11:33:44.400Z,5.72
2023-06-01T11:36:15.889Z,5.63
2023-06-01T11:38:46.881Z,5.57
2023-06-01T11:41:14.028Z,6.07
2023-06-01T11:43:41.408Z,5.63
2023-06-01T11:46:21.793Z,5.35
2023-06-01T11:49:06.652Z,5.32
2023-06-01T11:51:35.213Z,5.83
2023-06-01T11:54:02.607Z,5.90
2023-06-01T11:56:33.563Z,5.38
2023-06-01T11:59:09.731Z,5.78
2023-06-01T12:01:40.439Z,5.45
2023-06-01T12:04:08.900Z,5.70
2023-06-01T12:06:37.054Z,6.50
2023-06-01T12:09:05.058Z,5.43
2023-06-01T12:11:33.716Z,5.32
2023-06-01T12:14:01.064Z,6.00
2023-06-01T12:16:50.388Z,5.78
2023-06-01T12:19:17.709Z,5.30
2023-06-01T12:21:52.338Z,5.28
2023-06-01T12:26:47.098Z,6.25
2023-06-01T12:29:14.337Z,5.88
2023-06-01T12:31:54.682Z,5.13
2023-06-01T12:34:21.823Z,5.50
2023-06-01T12:36:48.965Z,5.70
2023-06-01T12:39:16.611Z,5.53
2023-06-01T12:41:51.689Z,5.07
2023-06-01T12:44:22.443Z,5.55
2023-06-01T12:46:49.627Z,5.38
2023-06-01T12:49:18.671Z,5.40
2023-06-01T12:51:46.432Z,5.35
2023-06-01T12:54:13.700Z,6.15
2023-06-01T12:56:41.283Z,5.13
2023-06-01T12:59:08.961Z,5.43
2023-06-01T13:01:36.555Z,5.20
2023-06-01T13:04:07.261Z,5.10
2023-06-01T13:06:35.610Z,5.53
2023-06-01T13:09:03.649Z,5.85
2023-06-01T13:11:31.004Z,5.00
2023-06-01T13:13:58.224Z,5.80
2023-06-01T13:16:25.548Z,5.25
2023-06-01T13:18:52.842Z,5.50
2023-06-01T13:21:20.056Z,5.72
2023-06-01T13:23:47.446Z,4.68
2023-06-01T13:26:15.620Z,5.55
2023-06-01T13:28:43.086Z,5.05
2023-06-01T13:31:10.533Z,5.38
2023-06-01T13:33:37.838Z,5.40
2023-06-01T13:36:06.597Z,4.95
2023-06-01T13:38:33.898Z,5.60
2023-06-01T13:41:01.444Z,5.53
2023-06-01T13:43:28.800Z,5.55
2023-06-01T13:45:56.074Z,5.13
2023-06-01T13:48:23.441Z,5.63
2023-06-01T13:50:50.759Z,5.22
2023-06-01T13:53:17.923Z,6.00
2023-06-01T13:55:45.129Z,4.97
2023-06-01T13:58:12.330Z,5.60
2023-06-01T14:00:40.503Z,6.65
2023-06-01T14:03:08.867Z,5.55
2023-06-01T14:05:50.270Z,5.13
2023-06-01T14:08:19.342Z,5.40
2023-06-01T14:10:46.493Z,5.60
2023-06-01T14:13:13.627Z,4.80
2023-06-01T14:15:41.061Z,5.03
2023-06-01T14:18:09.840Z,5.28
2023-06-01T14:20:38.864Z,5.45
2023-06-01T14:23:08.891Z,5.30
2023-06-01T14:25:36.099Z,5.40
2023-06-01T14:28:03.465Z,5.65
2023-06-01T14:30:31.712Z,5.68
2023-06-01T14:32:59.055Z,5.43
2023-06-01T14:35:27.474Z,4.72
2023-06-01T14:37:54.840Z,5.18
2023-06-01T14:40:22.040Z,5.80
2023-06-01T14:42:49.328Z,5.20
2023-06-01T14:45:17.074Z,5.80
2023-06-01T14:47:44.447Z,5.10
2023-06-01T14:50:12.053Z,5.10
2023-06-01T14:52:39.390Z,5.68
2023-06-01T14:55:06.782Z,5.13
2023-06-01T14:57:34.162Z,5.30
2023-06-01T15:00:04.924Z,5.70
2023-06-01T15:02:33.581Z,4.90
2023-06-01T15:05:00.905Z,5.20
2023-06-01T15:07:28.104Z,4.90
2023-06-01T15:09:55.512Z,5.32
2023-06-01T15:12:22.785Z,5.00
2023-06-01T15:14:52.062Z,5.82
2023-06-01T15:17:19.617Z,5.25
2023-06-01T15:19:47.147Z,5.10
2023-06-01T15:22:14.689Z,4.78
2023-06-01T15:24:42.124Z,4.72
2023-06-01T15:27:10.380Z,4.95
2023-06-01T15:29:37.628Z,4.85
2023-06-01T15:32:05.180Z,5.22
2023-06-01T15:34:32.444Z,4.80
2023-06-01T15:36:59.714Z,4.88
2023-06-01T15:39:26.932Z,4.80
2023-06-01T15:44:24.520Z,5.28
2023-06-01T15:46:52.065Z,5.05
2023-06-01T15:49:19.540Z,5.15
2023-06-01T15:51:46.748Z,4.57
2023-06-01T15:54:13.897Z,4.70
2023-06-01T15:56:41.083Z,5.30
2023-06-01T15:59:08.317Z,4.55
2023-06-01T16:01:35.683Z,4.97
2023-06-01T16:04:03.033Z,5.20
2023-06-01T16:06:30.184Z,4.70
2023-06-01T16:08:59.224Z,5.70
2023-06-01T16:11:27.490Z,7.10
2023-06-01T16:13:54.738Z,8.90
2023-06-01T16:16:22.996Z,9.50
2023-06-01T16:18:50.341Z,4.90
2023-06-01T16:21:17.812Z,6.68
2023-06-01T16:23:45.078Z,4.88
2023-06-01T16:26:12.485Z,4.90
2023-06-01T16:28:39.661Z,5.55
2023-06-01T16:31:07.500Z,8.48
2023-06-01T16:33:34.662Z,6.47
2023-06-01T16:36:02.133Z,6.60
2023-06-01T16:38:29.380Z,6.68
2023-06-01T16:40:56.541Z,5.25
2023-06-01T16:43:23.836Z,4.72
2023-06-01T16:45:51.000Z,5.43
2023-06-01T16:48:18.213Z,5.68
2023-06-01T16:50:46.901Z,5.10
2023-06-01T16:53:17.511Z,4.78
2023-06-01T16:55:44.661Z,5.30
2023-06-01T16:58:11.843Z,5.75
2023-06-01T17:00:38.997Z,4.57
2023-06-01T17:03:06.316Z,4.85
2023-06-01T17:05:35.068Z,4.93
2023-06-01T17:08:02.364Z,5.03
2023-06-01T17:10:29.566Z,4.72
2023-06-01T17:12:56.800Z,4.43
2023-06-01T17:15:24.067Z,5.20
2023-06-01T17:17:51.406Z,4.63
2023-06-01T17:20:18.590Z,4.90
2023-06-01T17:22:46.490Z,4.60
2023-06-01T17:25:13.707Z,4.60
2023-06-01T17:27:44.429Z,6.03
2023-06-01T17:30:12.345Z,4.63
2023-06-01T17:32:39.649Z,5.00
2023-06-01T17:35:07.051Z,5.03
2023-06-01T17:37:34.216Z,4.78
2023-06-01T17:40:01.424Z,5.57
2023-06-01T17:42:28.623Z,4.85
2023-06-01T17:44:56.111Z,4.93
2023-06-01T17:47:23.345Z,5.05
2023-06-01T17:49:50.837Z,4.85
2023-06-01T17:52:18.395Z,4.72
2023-06-01T17:54:46.385Z,4.82
2023-06-01T17:57:13.569Z,4.95
2023-06-01T17:59:44.464Z,4.25
2023-06-01T18:02:11.692Z,4.30
2023-06-01T18:04:39.276Z,4.07
2023-06-01T18:07:06.502Z,4.63
2023-06-01T18:09:33.654Z,4.40
2023-06-01T18:12:01.147Z,4.90
2023-06-01T18:14:28.599Z,4.43
2023-06-01T18:16:55.801Z,4.63
2023-06-01T18:19:24.733Z,7.35
2023-06-01T18:21:51.998Z,5.90
2023-06-01T18:24:19.197Z,6.10
2023-06-01T18:26:46.530Z,5.32
2023-06-01T18:29:14.144Z,5.35
2023-06-01T18:31:42.480Z,6.28
2023-06-01T18:34:09.813Z,5.50
2023-06-01T18:36:37.477Z,4.63
2023-06-01T18:39:04.783Z,4.80
2023-06-01T18:41:31.992Z,4.43
2023-06-01T18:43:59.953Z,4.38
2023-06-01T18:46:27.861Z,4.18
2023-06-01T18:48:55.193Z,4.32
2023-06-01T18:51:22.963Z,4.35
2023-06-01T18:53:50.643Z,4.35
2023-06-01T18:56:19.415Z,4.88
2023-06-01T18:58:47.569Z,5.15
2023-06-01T19:01:19.152Z,5.25
2023-06-01T19:03:48.373Z,4.43
2023-06-01T19:06:15.650Z,5.00
2023-06-01T19:08:42.920Z,5.00
2023-06-01T19:11:10.316Z,4.75
2023-06-01T19:13:37.502Z,4.30
2023-06-01T19:16:27.530Z,4.10
2023-06-01T19:18:55.312Z,4.03
2023-06-01T19:21:27.444Z,4.57
2023-06-01T19:23:56.029Z,4.68
2023-06-01T19:26:26.883Z,4.47
2023-06-01T19:29:04.924Z,3.88
2023-06-01T19:31:36.362Z,4.15
2023-06-01T19:34:04.749Z,4.38
2023-06-01T19:36:46.991Z,3.60
2023-06-01T19:39:14.119Z,3.65
2023-06-01T19:41:41.242Z,4.60
2023-06-01T19:44:18.614Z,4.40
2023-06-01T19:46:45.872Z,4.32
2023-06-01T19:49:18.335Z,4.25
2023-06-01T19:51:47.270Z,4.43
2023-06-01T19:54:20.284Z,4.88
2023-06-01T19:56:48.606Z,4.85
2023-06-01T19:59:23.697Z,4.82
2023-06-01T20:01:51.389Z,5.60
2023-06-01T20:04:19.773Z,5.80
2023-06-01T20:06:47.887Z,5.43
2023-06-01T20:09:18.124Z,4.68
2023-06-01T20:11:48.729Z,4.22
2023-06-01T20:14:15.877Z,4.72
2023-06-01T20:16:44.102Z,4.20
2023-06-01T20:19:12.503Z,4.45
2023-06-01T20:21:43.570Z,3.72
2023-06-01T20:24:11.078Z,3.92
2023-06-01T20:26:38.398Z,3.47
2023-06-01T20:29:05.677Z,3.67
2023-06-01T20:31:32.899Z,4.00
2023-06-01T20:34:00.081Z,3.88
2023-06-01T20:36:32.720Z,3.60
2023-06-01T20:39:00.711Z,3.50
2023-06-01T20:41:31.939Z,3.95
2023-06-01T20:43:59.139Z,3.40
2023-06-01T20:46:28.148Z,3.78
2023-06-01T20:48:55.527Z,3.85
2023-06-01T20:51:25.717Z,3.63
2023-06-01T20:53:54.571Z,3.70
2023-06-01T20:56:27.853Z,3.45
2023-06-01T20:58:55.265Z,3.75
2023-06-01T21:01:24.760Z,4.05
2023-06-01T21:03:51.961Z,4.43
2023-06-01T21:06:19.362Z,3.97
2023-06-01T21:08:46.583Z,3.95
2023-06-01T21:11:13.732Z,3.90
2023-06-01T21:13:42.270Z,3.78
2023-06-01T21:16:09.786Z,4.38
2023-06-01T21:18:37.408Z,3.67
2023-06-01T21:21:05.322Z,4.25
2023-06-01T21:23:32.762Z,4.15
2023-06-01T21:26:00.109Z,3.90
2023-06-01T21:28:27.374Z,3.95
2023-06-01T21:30:54.678Z,4.57
2023-06-01T21:33:22.330Z,4.78
2023-06-01T21:35:50.412Z,4.47
2023-06-01T21:38:18.033Z,5.28
2023-06-01T21:40:46.128Z,5.30
2023-06-01T21:43:14.209Z,5.75
2023-06-01T21:45:41.581Z,5.90
2023-06-01T21:48:09.767Z,6.07
2023-06-01T21:50:40.717Z,7.38
2023-06-01T21:53:08.303Z,7.60
2023-06-01T21:55:36.395Z,7.55
2023-06-01T21:58:03.991Z,7.38
2023-06-01T22:00:32.194Z,6.43
2023-06-01T22:02:59.586Z,6.38
2023-06-01T22:05:27.283Z,6.85
2023-06-01T22:07:55.059Z,6.78
2023-06-01T22:10:22.439Z,6.60
2023-06-01T22:12:49.673Z,6.53
2023-06-01T22:15:17.099Z,6.80
2023-06-01T22:17:44.424Z,6.13
2023-06-01T22:20:12.285Z,6.55
2023-06-01T22:22:39.672Z,6.93
2023-06-01T22:25:07.338Z,5.90
2023-06-01T22:27:34.829Z,6.38
2023-06-01T22:30:02.210Z,6.35
2023-06-01T22:32:29.512Z,6.38
2023-06-01T22:34:56.785Z,6.80
2023-06-01T22:37:24.193Z,6.53
2023-06-01T22:39:51.617Z,6.80
2023-06-01T22:42:19.251Z,6.68
2023-06-01T22:44:46.518Z,6.57
2023-06-01T22:47:13.832Z,7.05
2023-06-01T22:49:44.449Z,6.25
2023-06-01T22:52:14.250Z,6.70
2023-06-01T22:54:42.464Z,6.88
2023-06-01T22:57:09.725Z,6.90
2023-06-01T22:59:37.025Z,6.70
2023-06-01T23:02:04.471Z,7.30
2023-06-01T23:04:35.330Z,6.68
2023-06-01T23:07:08.286Z,6.40
2023-06-01T23:09:36.309Z,6.35
2023-06-01T23:12:04.209Z,6.97
2023-06-01T23:14:34.184Z,6.45
2023-06-01T23:17:04.024Z,6.60
2023-06-01T23:19:38.075Z,6.00
2023-06-01T23:22:06.666Z,6.20
2023-06-01T23:24:34.070Z,5.90
2023-06-01T23:27:01.952Z,6.15
2023-06-01T23:29:29.857Z,5.93
2023-06-01T23:31:57.132Z,6.32
2023-06-01T23:34:24.707Z,6.40
2023-06-01T23:36:54.287Z,5.72
2023-06-01T23:39:22.463Z,6.28
2023-06-01T23:41:50.354Z,5.70
2023-06-01T23:44:17.958Z,6.00
2023-06-01T23:46:46.496Z,5.53
2023-06-01T23:49:14.240Z,6.07
2023-06-01T23:51:41.882Z,6.90
2023-06-01T23:54:09.191Z,5.63
2023-06-01T23:56:36.529Z,6.07
2023-06-01T23:59:04.057Z,5.45
